Time;durP1;ratioP1;P1;durP2;ratioP2;P2;SDS_P1;SDS_P2;PMS_P1;PMS_P2;Temp;Humidity;BMP_temperature;BMP_pressure;BME280_temperature;BME280_humidity;BME280_pressure;Samples;Min_cycle;Max_cycle;Signal;HPM_P1;HPM_P2
2024/01/21 00:02:12;;;;;;;8.10;5.17;;;;;;;;;;5033584;28;20230;-28
2024/01/21 00:04:43;;;;;;;6.33;5.00;;;;;;;;;;5027866;28;20217;-28
2024/01/21 00:07:21;;;;;;;5.50;4.70;;;;;;;;;;5030560;28;20641;-25
2024/01/21 00:09:57;;;;;;;7.57;4.73;;;;;;;;;;5033185;28;20229;-26
2024/01/21 00:12:26;;;;;;;8.50;5.33;;;;;;;;;;5032280;28;20237;-28
2024/01/21 00:15:04;;;;;;;6.30;4.00;;;;;;;;;;5031441;28;20216;-28
2024/01/21 00:17:36;;;;;;;4.30;3.20;;;;;;;;;;5032022;28;20260;-27
2024/01/21 00:20:12;;;;;;;8.10;4.97;;;;;;;;;;5031123;28;20226;-27
2024/01/21 00:22:46;;;;;;;5.87;4.40;;;;;;;;;;5032885;28;20242;-25
2024/01/21 00:25:18;;;;;;;7.70;4.37;;;;;;;;;;5036632;28;20296;-26
2024/01/21 00:27:50;;;;;;;6.60;4.33;;;;;;;;;;5037841;28;20218;-27
2024/01/21 00:30:32;;;;;;;4.87;4.37;;;;;;;;;;5032933;28;20698;-28
2024/01/21 00:33:10;;;;;;;8.50;4.43;;;;;;;;;;5024755;28;20333;-26
2024/01/21 00:35:42;;;;;;;6.83;3.73;;;;;;;;;;5025273;28;20214;-26
2024/01/21 00:38:16;;;;;;;3.40;3.03;;;;;;;;;;5028805;28;20225;-27
2024/01/21 00:40:47;;;;;;;6.60;3.97;;;;;;;;;;5031689;28;20230;-28
2024/01/21 00:43:20;;;;;;;8.93;4.43;;;;;;;;;;5031143;28;20261;-27
2024/01/21 00:45:51;;;;;;;6.93;4.60;;;;;;;;;;5024793;28;20206;-29
2024/01/21 00:48:21;;;;;;;7.67;4.83;;;;;;;;;;5035104;28;20264;-26
2024/01/21 00:50:54;;;;;;;7.33;4.53;;;;;;;;;;5038301;28;20237;-27
2024/01/21 00:53:27;;;;;;;10.83;7.30;;;;;;;;;;5035914;28;20230;-26
2024/01/21 00:56:02;;;;;;;14.17;7.07;;;;;;;;;;5035289;28;20199;-26
2024/01/21 00:58:42;;;;;;;14.67;7.60;;;;;;;;;;5033886;28;20221;-29
2024/01/21 01:01:14;;;;;;;14.27;7.70;;;;;;;;;;5035705;28;20229;-30
2024/01/21 01:03:47;;;;;;;17.90;9.67;;;;;;;;;;5035526;28;20297;-26
2024/01/21 01:06:18;;;;;;;15.77;10.17;;;;;;;;;;5026800;28;20207;-27
2024/01/21 01:08:54;;;;;;;23.60;12.07;;;;;;;;;;5035306;28;20217;-26
2024/01/21 01:11:27;;;;;;;17.00;9.30;;;;;;;;;;5074364;23;20233;-26
2024/01/21 01:13:56;;;;;;;18.97;10.37;;;;;;;;;;5063187;28;20205;-27
2024/01/21 01:16:24;;;;;;;22.90;12.97;;;;;;;;;;5071017;28;20212;-25
2024/01/21 01:18:59;;;;;;;23.93;12.10;;;;;;;;;;5067076;28;20258;-26
2024/01/21 01:21:38;;;;;;;19.73;11.43;;;;;;;;;;5035767;28;20297;-26
2024/01/21 01:24:10;;;;;;;24.60;12.70;;;;;;;;;;5036338;28;20210;-26
2024/01/21 01:26:44;;;;;;;21.67;11.60;;;;;;;;;;5035533;28;20211;-29
2024/01/21 01:29:15;;;;;;;25.10;13.47;;;;;;;;;;5050167;28;20667;-27
2024/01/21 01:31:51;;;;;;;17.20;10.07;;;;;;;;;;5034994;28;20562;-28
2024/01/21 01:34:25;;;;;;;19.23;11.17;;;;;;;;;;5038778;28;20210;-28
2024/01/21 01:39:31;;;;;;;22.77;11.67;;;;;;;;;;5071424;28;20331;-26
2024/01/21 01:42:07;;;;;;;20.93;10.70;;;;;;;;;;5055114;28;20244;-28
2024/01/21 01:44:40;;;;;;;19.80;10.23;;;;;;;;;;5063709;28;20257;-28
2024/01/21 01:47:12;;;;;;;22.17;10.13;;;;;;;;;;5059540;28;20213;-25
2024/01/21 01:49:49;;;;;;;20.13;11.03;;;;;;;;;;5065823;28;20233;-27
2024/01/21 01:52:23;;;;;;;13.20;9.23;;;;;;;;;;5055237;28;20201;-28
2024/01/21 01:55:01;;;;;;;18.47;10.23;;;;;;;;;;5062993;28;20268;-27
2024/01/21 01:57:31;;;;;;;15.23;8.67;;;;;;;;;;5069579;28;20304;-25
2024/01/21 02:00:07;;;;;;;16.33;8.93;;;;;;;;;;5054349;28;20256;-26
2024/01/21 02:02:41;;;;;;;15.47;9.30;;;;;;;;;;5061550;28;20320;-28
2024/01/21 02:05:15;;;;;;;17.20;9.57;;;;;;;;;;5055617;28;20213;-26
2024/01/21 02:07:44;;;;;;;15.67;9.17;;;;;;;;;;5065101;28;20209;-26
2024/01/21 02:10:18;;;;;;;16.93;9.93;;;;;;;;;;5061406;28;20229;-26
2024/01/21 02:12:53;;;;;;;16.13;10.63;;;;;;;;;;5065828;28;20193;-26
2024/01/21 02:15:35;;;;;;;18.07;10.37;;;;;;;;;;5054794;28;20264;-26
2024/01/21 02:18:05;;;;;;;20.10;11.70;;;;;;;;;;5053931;28;20257;-26
2024/01/21 02:20:45;;;;;;;22.43;11.50;;;;;;;;;;5052939;28;20787;-29
2024/01/21 02:23:23;;;;;;;18.40;10.93;;;;;;;;;;5058899;28;20631;-28
2024/01/21 02:25:59;;;;;;;21.87;10.70;;;;;;;;;;5062153;28;20628;-27
2024/01/21 02:28:33;;;;;;;27.00;11.23;;;;;;;;;;5074906;28;20201;-28
2024/01/21 02:38:48;;;;;;;17.13;10.13;;;;;;;;;;5103517;28;20243;-27
2024/01/21 02:41:20;;;;;;;23.03;11.87;;;;;;;;;;5102753;28;20272;-26
2024/01/21 02:43:56;;;;;;;17.67;10.10;;;;;;;;;;5112585;28;20291;-26
2024/01/21 02:46:25;;;;;;;19.73;10.97;;;;;;;;;;5114586;28;20287;-28
2024/01/21 02:48:55;;;;;;;24.57;11.57;;;;;;;;;;5096907;28;20218;-26
2024/01/21 02:51:31;;;;;;;20.80;10.87;;;;;;;;;;5109556;28;20220;-26
2024/01/21 02:54:01;;;;;;;14.53;8.43;;;;;;;;;;5113550;28;20203;-26
2024/01/21 02:56:29;;;;;;;18.33;9.57;;;;;;;;;;5113294;28;20265;-28
2024/01/21 02:58:58;;;;;;;24.73;12.37;;;;;;;;;;5112416;28;20208;-27
2024/01/21 03:01:28;;;;;;;17.83;10.37;;;;;;;;;;5108685;28;20322;-25
2024/01/21 03:03:56;;;;;;;17.63;10.37;;;;;;;;;;5113547;28;20271;-26
2024/01/21 03:06:25;;;;;;;19.97;9.87;;;;;;;;;;5108372;28;20299;-27
2024/01/21 03:08:58;;;;;;;15.67;9.43;;;;;;;;;;5113330;28;20707;-28
2024/01/21 03:11:30;;;;;;;18.50;9.97;;;;;;;;;;5107783;28;20406;-27
2024/01/21 03:13:59;;;;;;;15.63;8.27;;;;;;;;;;5105696;28;20658;-26
2024/01/21 03:16:30;;;;;;;14.67;9.00;;;;;;;;;;5113613;28;20207;-28
2024/01/21 03:18:59;;;;;;;16.67;9.40;;;;;;;;;;5112708;28;20208;-27
2024/01/21 03:21:29;;;;;;;17.97;10.33;;;;;;;;;;5101306;28;20269;-27
2024/01/21 03:23:58;;;;;;;15.27;9.13;;;;;;;;;;5103121;28;20678;-25
2024/01/21 03:26:31;;;;;;;16.63;9.10;;;;;;;;;;5111922;28;20204;-28
2024/01/21 03:29:05;;;;;;;20.10;10.93;;;;;;;;;;5103730;28;20200;-28
2024/01/21 03:31:39;;;;;;;17.13;10.37;;;;;;;;;;5113786;28;20713;-26
2024/01/21 03:34:10;;;;;;;15.73;8.37;;;;;;;;;;5110295;28;20571;-27
2024/01/21 03:36:42;;;;;;;16.67;9.10;;;;;;;;;;5105669;28;20223;-26
2024/01/21 03:39:11;;;;;;;15.50;8.50;;;;;;;;;;5104643;28;20204;-29
2024/01/21 03:41:47;;;;;;;17.47;9.53;;;;;;;;;;5113641;28;20231;-28
2024/01/21 03:44:18;;;;;;;14.33;7.73;;;;;;;;;;5103174;28;20208;-25
2024/01/21 03:46:52;;;;;;;14.17;7.27;;;;;;;;;;5109914;28;20212;-29
2024/01/21 03:49:26;;;;;;;13.47;6.90;;;;;;;;;;5110058;28;20221;-27
2024/01/21 03:51:57;;;;;;;12.73;7.17;;;;;;;;;;5107317;28;20212;-28
2024/01/21 03:54:25;;;;;;;9.43;6.13;;;;;;;;;;5113742;28;20203;-28
2024/01/21 03:56:56;;;;;;;8.03;4.60;;;;;;;;;;5104577;28;20201;-27
2024/01/21 03:59:24;;;;;;;10.30;5.57;;;;;;;;;;5104684;28;20223;-26
2024/01/21 04:01:52;;;;;;;10.70;5.67;;;;;;;;;;5103170;28;20221;-27
2024/01/21 04:04:22;;;;;;;9.77;4.97;;;;;;;;;;5092883;28;20204;-27
2024/01/21 04:06:51;;;;;;;11.40;5.90;;;;;;;;;;5102075;28;20300;-28
2024/01/21 04:09:23;;;;;;;7.53;5.43;;;;;;;;;;5104584;28;20218;-25
2024/01/21 04:11:56;;;;;;;12.30;6.30;;;;;;;;;;5111627;28;20207;-26
2024/01/21 04:14:29;;;;;;;11.77;7.47;;;;;;;;;;5109174;28;20203;-27
2024/01/21 04:17:00;;;;;;;9.43;5.70;;;;;;;;;;5110549;28;20204;-25
2024/01/21 04:19:28;;;;;;;11.30;6.70;;;;;;;;;;5109937;28;20228;-28
2024/01/21 04:22:10;;;;;;;11.93;6.93;;;;;;;;;;5104657;28;20227;-26
2024/01/21 04:24:40;;;;;;;7.27;5.23;;;;;;;;;;5107659;28;20235;-28
2024/01/21 04:27:09;;;;;;;15.87;8.10;;;;;;;;;;5107216;28;20273;-24
2024/01/21 04:29:44;;;;;;;12.67;6.57;;;;;;;;;;5110359;28;20224;-27
2024/01/21 04:32:13;;;;;;;10.93;5.97;;;;;;;;;;5116330;28;20195;-26
2024/01/21 04:34:41;;;;;;;13.33;7.13;;;;;;;;;;5107517;28;20200;-27
2024/01/21 04:37:11;;;;;;;11.87;7.40;;;;;;;;;;5108523;28;20227;-26
2024/01/21 04:39:40;;;;;;;12.47;7.27;;;;;;;;;;5114030;28;20696;-26
2024/01/21 04:42:07;;;;;;;10.80;6.60;;;;;;;;;;5112513;28;20303;-26
2024/01/21 04:44:37;;;;;;;11.23;7.27;;;;;;;;;;5114650;28;20208;-26
2024/01/21 04:47:08;;;;;;;13.43;7.33;;;;;;;;;;5113103;28;20199;-26
2024/01/21 04:49:40;;;;;;;15.10;8.30;;;;;;;;;;5110947;28;20684;-28
2024/01/21 04:52:11;;;;;;;14.40;7.53;;;;;;;;;;5114790;28;20235;-26
2024/01/21 04:54:42;;;;;;;13.30;7.83;;;;;;;;;;5106877;28;20299;-28
2024/01/21 04:57:11;;;;;;;11.83;6.90;;;;;;;;;;5110410;28;20622;-26
2024/01/21 04:59:42;;;;;;;15.80;8.40;;;;;;;;;;5103145;28;20215;-26
2024/01/21 05:02:15;;;;;;;13.60;7.17;;;;;;;;;;5107903;28;20690;-27
2024/01/21 05:04:46;;;;;;;11.40;6.73;;;;;;;;;;5109779;28;20225;-27
2024/01/21 05:07:20;;;;;;;10.97;6.87;;;;;;;;;;5100259;28;20683;-27
2024/01/21 05:09:49;;;;;;;9.53;6.57;;;;;;;;;;5114017;28;20225;-28
2024/01/21 05:12:21;;;;;;;12.50;7.20;;;;;;;;;;5114468;28;20219;-26
2024/01/21 05:14:55;;;;;;;11.60;7.23;;;;;;;;;;5104527;28;20231;-27
2024/01/21 05:17:33;;;;;;;12.20;6.27;;;;;;;;;;5114457;28;20596;-29
2024/01/21 05:20:03;;;;;;;13.30;7.60;;;;;;;;;;5109899;28;20215;-25
2024/01/21 05:22:31;;;;;;;9.07;6.23;;;;;;;;;;5108461;28;20582;-28
2024/01/21 05:25:03;;;;;;;11.70;6.93;;;;;;;;;;5113594;28;20287;-28
2024/01/21 05:27:31;;;;;;;7.47;4.67;;;;;;;;;;5113643;28;20204;-28
2024/01/21 05:30:03;;;;;;;13.53;7.57;;;;;;;;;;5085634;28;20224;-26
2024/01/21 05:32:35;;;;;;;13.03;6.80;;;;;;;;;;5113832;28;20287;-26
2024/01/21 05:35:03;;;;;;;12.27;6.80;;;;;;;;;;5103580;28;20650;-28
2024/01/21 05:37:31;;;;;;;9.37;6.03;;;;;;;;;;5101472;28;20218;-27
2024/01/21 05:39:59;;;;;;;8.67;6.07;;;;;;;;;;5115613;28;20318;-27
2024/01/21 05:42:29;;;;;;;10.67;6.13;;;;;;;;;;5113893;28;20223;-26
2024/01/21 05:44:58;;;;;;;12.10;6.03;;;;;;;;;;5112438;28;20200;-28
2024/01/21 05:47:29;;;;;;;8.77;5.60;;;;;;;;;;5115273;28;20204;-28
2024/01/21 05:50:01;;;;;;;8.63;5.73;;;;;;;;;;5102201;28;20289;-27
2024/01/21 05:57:37;;;;;;;8.43;5.27;;;;;;;;;;5106252;28;20295;-28
2024/01/21 06:00:05;;;;;;;10.57;5.70;;;;;;;;;;5103409;28;20224;-27
2024/01/21 06:02:37;;;;;;;9.43;5.27;;;;;;;;;;5085869;28;20678;-25
2024/01/21 06:05:06;;;;;;;7.73;4.50;;;;;;;;;;5081380;28;20205;-28
2024/01/21 06:07:37;;;;;;;10.67;5.43;;;;;;;;;;5087430;28;20287;-26
2024/01/21 06:10:22;;;;;;;8.90;5.07;;;;;;;;;;5094126;28;20224;-28
2024/01/21 06:12:54;;;;;;;9.53;4.90;;;;;;;;;;5093748;28;20208;-25
2024/01/21 06:15:25;;;;;;;5.87;4.97;;;;;;;;;;5094688;28;20204;-28
2024/01/21 06:17:56;;;;;;;6.33;4.40;;;;;;;;;;5086969;28;20209;-26
2024/01/21 06:20:26;;;;;;;11.17;5.33;;;;;;;;;;5080292;28;20238;-27
2024/01/21 06:22:58;;;;;;;9.63;6.00;;;;;;;;;;5086874;28;20270;-27
2024/01/21 06:25:32;;;;;;;8.57;4.90;;;;;;;;;;5090924;28;20281;-27
2024/01/21 06:28:08;;;;;;;8.17;4.93;;;;;;;;;;5090056;28;20204;-29
2024/01/21 06:30:38;;;;;;;7.73;5.13;;;;;;;;;;5088588;28;20220;-27
2024/01/21 06:33:07;;;;;;;7.47;5.00;;;;;;;;;;5093830;28;20250;-25
2024/01/21 06:35:44;;;;;;;7.63;5.13;;;;;;;;;;5082265;28;20263;-26
2024/01/21 06:38:13;;;;;;;7.23;4.73;;;;;;;;;;5085502;28;20616;-26
2024/01/21 06:40:44;;;;;;;9.17;5.13;;;;;;;;;;5093846;28;20250;-25
2024/01/21 06:43:23;;;;;;;7.77;5.00;;;;;;;;;;5093851;28;20238;-26
2024/01/21 06:45:53;;;;;;;10.77;6.17;;;;;;;;;;5087578;28;20299;-27
2024/01/21 06:48:21;;;;;;;9.00;5.43;;;;;;;;;;5093144;28;20205;-28
2024/01/21 06:51:09;;;;;;;7.40;4.80;;;;;;;;;;5088134;28;20311;-26
2024/01/21 06:53:47;;;;;;;8.33;5.47;;;;;;;;;;5086924;28;20567;-25
2024/01/21 06:56:16;;;;;;;10.07;6.17;;;;;;;;;;5093034;28;20299;-27
2024/01/21 06:58:48;;;;;;;12.27;5.97;;;;;;;;;;5091460;28;20610;-28
2024/01/21 07:01:22;;;;;;;9.33;5.63;;;;;;;;;;5092077;28;20247;-26
2024/01/21 07:03:53;;;;;;;9.93;6.00;;;;;;;;;;5093192;28;20233;-26
2024/01/21 07:06:29;;;;;;;8.23;5.17;;;;;;;;;;5088555;28;20205;-26
2024/01/21 07:09:08;;;;;;;8.53;5.87;;;;;;;;;;5085051;28;20722;-27
2024/01/21 07:11:39;;;;;;;10.27;5.70;;;;;;;;;;5093087;28;20208;-28
2024/01/21 07:14:14;;;;;;;9.20;4.97;;;;;;;;;;5090184;28;20204;-27
2024/01/21 07:16:47;;;;;;;11.27;5.77;;;;;;;;;;5079358;28;20287;-27
2024/01/21 07:19:18;;;;;;;8.23;5.40;;;;;;;;;;5084405;28;20212;-25
2024/01/21 07:24:24;;;;;;;8.60;5.37;;;;;;;;;;5091616;28;20323;-33
2024/01/21 07:26:53;;;;;;;7.10;5.50;;;;;;;;;;5085590;28;20201;-33
2024/01/21 07:29:28;;;;;;;8.60;5.00;;;;;;;;;;5082469;28;20233;-34
2024/01/21 07:31:57;;;;;;;8.00;4.30;;;;;;;;;;5084504;28;20212;-32
2024/01/21 07:34:27;;;;;;;11.13;5.87;;;;;;;;;;5085599;28;20667;-37
2024/01/21 07:37:03;;;;;;;9.63;5.97;;;;;;;;;;5086609;28;20212;-31
2024/01/21 07:39:34;;;;;;;9.70;5.40;;;;;;;;;;5072711;28;20220;-36
2024/01/21 07:42:03;;;;;;;6.83;4.67;;;;;;;;;;5072629;28;20205;-31
2024/01/21 07:44:34;;;;;;;10.70;5.70;;;;;;;;;;5092744;28;20307;-30
2024/01/21 07:47:04;;;;;;;8.67;5.63;;;;;;;;;;5084415;28;20216;-36
2024/01/21 07:49:38;;;;;;;6.70;4.47;;;;;;;;;;5077839;28;20292;-35
2024/01/21 07:52:08;;;;;;;8.87;4.67;;;;;;;;;;5073450;28;20236;-34
2024/01/21 07:54:51;;;;;;;8.43;5.70;;;;;;;;;;5085309;28;20193;-34
2024/01/21 07:57:22;;;;;;;8.20;5.80;;;;;;;;;;5073941;28;20284;-37
2024/01/21 07:59:50;;;;;;;8.20;5.07;;;;;;;;;;5082490;28;20228;-36
2024/01/21 08:02:19;;;;;;;7.80;5.87;;;;;;;;;;5085066;28;20212;-35
2024/01/21 08:04:48;;;;;;;9.40;6.17;;;;;;;;;;5069666;28;20229;-37
2024/01/21 08:07:19;;;;;;;6.27;4.90;;;;;;;;;;5072933;28;20205;-35
2024/01/21 08:09:52;;;;;;;9.03;5.50;;;;;;;;;;5073144;28;20279;-35
2024/01/21 08:12:21;;;;;;;8.47;5.70;;;;;;;;;;5080982;28;20283;-33
2024/01/21 08:14:53;;;;;;;8.87;5.27;;;;;;;;;;5071862;28;20205;-35
2024/01/21 08:17:34;;;;;;;9.37;5.80;;;;;;;;;;5083036;28;20658;-34
2024/01/21 08:22:31;;;;;;;8.77;5.83;;;;;;;;;;5100178;28;20300;-34
2024/01/21 08:25:05;;;;;;;10.30;5.53;;;;;;;;;;5077716;28;20609;-33
2024/01/21 08:27:35;;;;;;;9.20;6.33;;;;;;;;;;5107991;28;20290;-35
2024/01/21 08:30:05;;;;;;;7.53;5.53;;;;;;;;;;5110067;28;20246;-34
2024/01/21 08:32:36;;;;;;;14.93;6.80;;;;;;;;;;5107202;28;20204;-31
2024/01/21 08:35:06;;;;;;;10.87;6.23;;;;;;;;;;5100960;28;20212;-34
2024/01/21 08:37:35;;;;;;;11.80;6.23;;;;;;;;;;5103778;28;20257;-35
2024/01/21 08:40:07;;;;;;;13.10;6.60;;;;;;;;;;5112429;28;20226;-33
2024/01/21 08:42:35;;;;;;;10.63;6.97;;;;;;;;;;5112527;28;20200;-34
2024/01/21 08:45:05;;;;;;;12.83;7.57;;;;;;;;;;5107696;28;20219;-33
2024/01/21 08:47:35;;;;;;;10.67;6.77;;;;;;;;;;5095850;28;20197;-37
2024/01/21 08:50:04;;;;;;;13.87;7.03;;;;;;;;;;5103366;28;20310;-33
2024/01/21 08:52:32;;;;;;;17.90;8.40;;;;;;;;;;5111713;28;20238;-34
2024/01/21 08:55:05;;;;;;;15.77;9.07;;;;;;;;;;5111855;28;20200;-32
2024/01/21 08:57:35;;;;;;;14.83;9.43;;;;;;;;;;5111778;28;20290;-33
2024/01/21 09:00:04;;;;;;;18.57;10.03;;;;;;;;;;5109079;28;20588;-33
2024/01/21 09:02:38;;;;;;;12.50;8.37;;;;;;;;;;5103550;28;20200;-40
2024/01/21 09:05:06;;;;;;;15.37;9.10;;;;;;;;;;5103837;28;20255;-34
2024/01/21 09:07:34;;;;;;;14.03;9.13;;;;;;;;;;5111193;28;20215;-36
2024/01/21 09:10:08;;;;;;;14.47;9.00;;;;;;;;;;5112071;28;20220;-34
2024/01/21 09:12:38;;;;;;;15.63;8.57;;;;;;;;;;5113821;28;20203;-34
2024/01/21 09:15:06;;;;;;;15.07;8.73;;;;;;;;;;5104918;28;20264;-33
2024/01/21 09:17:34;;;;;;;17.07;9.00;;;;;;;;;;5114916;28;20209;-32
2024/01/21 09:20:02;;;;;;;17.73;10.47;;;;;;;;;;5107023;28;20343;-36
2024/01/21 09:22:33;;;;;;;13.77;8.27;;;;;;;;;;5113977;28;20219;-35
2024/01/21 09:25:01;;;;;;;13.13;8.83;;;;;;;;;;5114781;28;20230;-35
2024/01/21 09:27:28;;;;;;;17.03;10.00;;;;;;;;;;5114223;28;20208;-32
2024/01/21 09:29:58;;;;;;;22.57;14.13;;;;;;;;;;5107029;28;20228;-38
2024/01/21 09:32:26;;;;;;;17.60;9.97;;;;;;;;;;5112150;28;20204;-35
2024/01/21 09:34:54;;;;;;;16.33;9.10;;;;;;;;;;5105272;28;20253;-38
2024/01/21 09:37:21;;;;;;;16.23;9.73;;;;;;;;;;5112122;28;20253;-36
2024/01/21 09:39:49;;;;;;;21.17;12.27;;;;;;;;;;5114839;28;20224;-31
2024/01/21 09:42:17;;;;;;;16.07;9.63;;;;;;;;;;5113379;28;20269;-36
2024/01/21 09:44:45;;;;;;;13.37;8.57;;;;;;;;;;5108877;28;20224;-34
2024/01/21 09:47:16;;;;;;;14.50;9.13;;;;;;;;;;5114413;28;20308;-36
2024/01/21 09:49:44;;;;;;;12.87;7.87;;;;;;;;;;5098935;28;20299;-37
2024/01/21 09:52:12;;;;;;;15.03;9.07;;;;;;;;;;5112332;28;20661;-33
2024/01/21 09:54:39;;;;;;;12.00;8.70;;;;;;;;;;5106289;28;20200;-36
2024/01/21 09:57:09;;;;;;;13.53;8.80;;;;;;;;;;5114629;28;20644;-34
2024/01/21 09:59:37;;;;;;;11.03;7.77;;;;;;;;;;5108486;28;20224;-36
2024/01/21 10:02:05;;;;;;;10.37;7.37;;;;;;;;;;5110141;28;20200;-38
2024/01/21 10:07:03;;;;;;;14.13;8.13;;;;;;;;;;5087868;28;20224;-36
2024/01/21 10:09:31;;;;;;;14.40;9.77;;;;;;;;;;5090290;28;20267;-35
2024/01/21 10:12:01;;;;;;;13.97;8.80;;;;;;;;;;5084548;28;20200;-34
2024/01/21 10:14:29;;;;;;;12.80;9.13;;;;;;;;;;5090973;28;20287;-37
2024/01/21 10:17:02;;;;;;;11.53;9.00;;;;;;;;;;5088669;28;20303;-36
2024/01/21 10:19:44;;;;;;;13.90;8.23;;;;;;;;;;5091293;28;20224;-36
2024/01/21 10:22:14;;;;;;;14.50;9.37;;;;;;;;;;5090610;28;20733;-32
2024/01/21 10:24:45;;;;;;;15.30;9.23;;;;;;;;;;5094023;28;20228;-35
2024/01/21 10:27:16;;;;;;;12.67;9.10;;;;;;;;;;5088526;28;20542;-30
2024/01/21 10:29:45;;;;;;;12.60;7.50;;;;;;;;;;5081443;28;20266;-33
2024/01/21 10:32:13;;;;;;;13.90;8.57;;;;;;;;;;5093474;28;20204;-35
2024/01/21 10:34:41;;;;;;;13.77;9.07;;;;;;;;;;5085780;28;20197;-35
2024/01/21 10:37:11;;;;;;;14.23;9.07;;;;;;;;;;5088690;28;20278;-35
2024/01/21 10:39:40;;;;;;;14.23;9.30;;;;;;;;;;5093061;28;20706;-34
2024/01/21 10:42:11;;;;;;;11.53;8.57;;;;;;;;;;5093766;28;20204;-38
2024/01/21 10:44:40;;;;;;;16.57;9.17;;;;;;;;;;5085178;28;20247;-39
2024/01/21 10:47:09;;;;;;;12.63;8.87;;;;;;;;;;5088424;28;20292;-35
2024/01/21 10:49:39;;;;;;;12.97;8.77;;;;;;;;;;5090627;28;20315;-36
2024/01/21 10:52:08;;;;;;;16.47;9.23;;;;;;;;;;5089102;28;20209;-34
2024/01/21 10:54:37;;;;;;;11.87;8.53;;;;;;;;;;5093009;28;20239;-35
2024/01/21 10:57:07;;;;;;;15.33;9.33;;;;;;;;;;5093847;28;20231;-36
2024/01/21 10:59:36;;;;;;;11.50;8.37;;;;;;;;;;5088292;28;20220;-33
2024/01/21 11:02:04;;;;;;;15.07;10.00;;;;;;;;;;5093791;28;20240;-34
2024/01/21 11:04:33;;;;;;;14.70;8.80;;;;;;;;;;5082103;28;20251;-33
2024/01/21 11:07:03;;;;;;;12.10;8.23;;;;;;;;;;5065697;28;20740;-35
2024/01/21 11:09:33;;;;;;;14.33;8.83;;;;;;;;;;5069850;28;20715;-36
2024/01/21 11:12:01;;;;;;;13.90;8.20;;;;;;;;;;5066835;28;20233;-32
2024/01/21 11:14:34;;;;;;;13.63;8.07;;;;;;;;;;5064377;28;20275;-36
2024/01/21 11:17:05;;;;;;;13.60;9.03;;;;;;;;;;5070868;28;20284;-35
2024/01/21 11:19:45;;;;;;;9.87;7.23;;;;;;;;;;5069739;28;20225;-38
2024/01/21 11:22:27;;;;;;;17.70;8.83;;;;;;;;;;5072437;28;20205;-32
2024/01/21 11:24:55;;;;;;;11.37;7.87;;;;;;;;;;5072496;28;20303;-35
2024/01/21 11:27:26;;;;;;;12.70;8.73;;;;;;;;;;5064867;28;20256;-31
2024/01/21 11:29:59;;;;;;;14.23;9.13;;;;;;;;;;5064737;28;20225;-32
2024/01/21 11:32:28;;;;;;;14.93;9.00;;;;;;;;;;5071440;28;20205;-33
2024/01/21 11:35:06;;;;;;;11.73;8.40;;;;;;;;;;5064746;28;20198;-34
2024/01/21 11:37:35;;;;;;;13.37;9.20;;;;;;;;;;5070247;28;20296;-36
2024/01/21 11:40:06;;;;;;;15.23;8.57;;;;;;;;;;5071833;28;20225;-31
2024/01/21 11:42:34;;;;;;;13.80;9.07;;;;;;;;;;5071840;28;20241;-34
2024/01/21 11:45:05;;;;;;;13.47;9.03;;;;;;;;;;5067998;28;20221;-32
2024/01/21 11:47:35;;;;;;;15.07;9.80;;;;;;;;;;5062755;28;20217;-34
2024/01/21 11:50:05;;;;;;;14.97;9.70;;;;;;;;;;5064525;28;20225;-34
2024/01/21 11:52:34;;;;;;;14.80;8.07;;;;;;;;;;5067034;28;20209;-32
2024/01/21 11:55:02;;;;;;;13.17;8.53;;;;;;;;;;5063211;28;20683;-32
2024/01/21 11:57:30;;;;;;;12.97;8.50;;;;;;;;;;5066056;28;20621;-33
2024/01/21 11:59:57;;;;;;;13.40;8.57;;;;;;;;;;5067348;28;20221;-35
2024/01/21 12:02:27;;;;;;;15.47;9.13;;;;;;;;;;5063578;28;20217;-36
2024/01/21 12:04:56;;;;;;;14.07;9.40;;;;;;;;;;5058720;28;20225;-33
2024/01/21 12:07:25;;;;;;;14.57;9.00;;;;;;;;;;5088889;28;20274;-36
2024/01/21 12:09:53;;;;;;;14.53;9.40;;;;;;;;;;5086453;28;20232;-31
2024/01/21 12:12:21;;;;;;;14.30;9.47;;;;;;;;;;5091886;28;20207;-31
2024/01/21 12:14:51;;;;;;;14.40;8.97;;;;;;;;;;5084688;28;20200;-37
2024/01/21 12:17:19;;;;;;;11.83;8.90;;;;;;;;;;5091855;28;20207;-35
2024/01/21 12:19:51;;;;;;;13.23;9.77;;;;;;;;;;5087693;28;20234;-33
2024/01/21 12:22:20;;;;;;;14.93;9.63;;;;;;;;;;5084580;28;20234;-33
2024/01/21 12:24:48;;;;;;;14.20;8.90;;;;;;;;;;5092177;28;20350;-34
2024/01/21 12:27:16;;;;;;;14.80;9.17;;;;;;;;;;5091905;28;20208;-31
2024/01/21 12:29:44;;;;;;;12.47;8.17;;;;;;;;;;5084671;28;20529;-38
2024/01/21 12:32:12;;;;;;;13.47;8.53;;;;;;;;;;5082323;28;20212;-34
2024/01/21 12:34:41;;;;;;;11.30;7.87;;;;;;;;;;5085644;28;20709;-34
2024/01/21 12:37:13;;;;;;;13.77;8.73;;;;;;;;;;5090552;28;20197;-37
2024/01/21 12:39:44;;;;;;;13.53;8.73;;;;;;;;;;5089481;28;20345;-32
2024/01/21 12:42:13;;;;;;;11.50;8.43;;;;;;;;;;5089074;28;20220;-33
2024/01/21 12:44:41;;;;;;;10.23;7.60;;;;;;;;;;5090845;28;20687;-30
2024/01/21 12:47:09;;;;;;;17.73;11.13;;;;;;;;;;5094823;28;20295;-36
2024/01/21 12:49:38;;;;;;;13.77;9.93;;;;;;;;;;5093668;28;20228;-32
2024/01/21 12:52:07;;;;;;;12.37;8.93;;;;;;;;;;5092718;28;20204;-36
2024/01/21 12:54:39;;;;;;;12.80;8.80;;;;;;;;;;5094181;28;20263;-34
2024/01/21 12:57:11;;;;;;;14.13;10.23;;;;;;;;;;5093822;28;20263;-34
2024/01/21 12:59:39;;;;;;;11.30;7.60;;;;;;;;;;5088464;28;20251;-31
2024/01/21 13:02:11;;;;;;;17.43;10.27;;;;;;;;;;5095522;28;20205;-32
2024/01/21 13:04:42;;;;;;;15.87;9.60;;;;;;;;;;5090530;28;20220;-38
2024/01/21 13:07:20;;;;;;;17.67;10.20;;;;;;;;;;5092164;28;20209;-33
2024/01/21 13:09:56;;;;;;;15.07;9.83;;;;;;;;;;5095839;28;20233;-33
2024/01/21 13:12:25;;;;;;;13.03;9.43;;;;;;;;;;5084678;28;20602;-36
2024/01/21 13:14:55;;;;;;;17.00;9.20;;;;;;;;;;5084354;28;20204;-36
2024/01/21 13:17:24;;;;;;;20.43;10.10;;;;;;;;;;5095361;28;20732;-37
2024/01/21 13:20:09;;;;;;;13.73;9.43;;;;;;;;;;5087561;28;20586;-35
2024/01/21 13:27:45;;;;;;;15.83;8.30;;;;;;;;;;5065377;28;20570;-34
2024/01/21 13:32:59;;;;;;;15.17;8.93;;;;;;;;;;5058329;28;20272;-37
2024/01/21 13:35:31;;;;;;;15.00;8.77;;;;;;;;;;5062443;28;20209;-31
2024/01/21 13:37:59;;;;;;;12.33;8.20;;;;;;;;;;5063836;28;20237;-33
2024/01/21 13:40:27;;;;;;;12.27;8.50;;;;;;;;;;5073043;28;20232;-35
2024/01/21 13:42:57;;;;;;;14.93;9.17;;;;;;;;;;5072783;28;20212;-35
2024/01/21 13:45:25;;;;;;;15.63;10.17;;;;;;;;;;5069652;28;20283;-33
2024/01/21 13:50:22;;;;;;;16.23;10.13;;;;;;;;;;5039021;28;20238;-33
2024/01/21 13:52:52;;;;;;;14.20;8.77;;;;;;;;;;5050278;28;20606;-32
2024/01/21 13:55:22;;;;;;;15.13;10.43;;;;;;;;;;5053740;28;20216;-35
2024/01/21 13:57:50;;;;;;;13.30;9.17;;;;;;;;;;5052120;28;20214;-31
2024/01/21 14:00:22;;;;;;;16.87;10.93;;;;;;;;;;5049569;28;20261;-37
2024/01/21 14:02:56;;;;;;;16.43;9.77;;;;;;;;;;5046833;28;20289;-37
2024/01/21 14:05:32;;;;;;;13.90;9.23;;;;;;;;;;5043621;28;20220;-33
2024/01/21 14:08:04;;;;;;;14.37;10.20;;;;;;;;;;5051384;28;20202;-35
2024/01/21 14:10:33;;;;;;;18.00;10.47;;;;;;;;;;5053231;28;20233;-32
2024/01/21 14:13:04;;;;;;;15.90;10.40;;;;;;;;;;5052565;28;20197;-33
2024/01/21 14:15:33;;;;;;;16.23;10.13;;;;;;;;;;5043062;28;20660;-32
2024/01/21 14:20:33;;;;;;;14.50;10.20;;;;;;;;;;5110160;28;20228;-35
2024/01/21 14:23:02;;;;;;;16.63;10.17;;;;;;;;;;5104602;28;20211;-35
2024/01/21 14:25:35;;;;;;;15.53;10.17;;;;;;;;;;5113230;28;20227;-32
2024/01/21 14:28:04;;;;;;;18.47;10.10;;;;;;;;;;5093738;28;20642;-35
2024/01/21 14:30:36;;;;;;;17.47;10.00;;;;;;;;;;5106111;28;20277;-41
2024/01/21 14:33:04;;;;;;;15.07;9.27;;;;;;;;;;5113075;28;20429;-35
2024/01/21 14:35:36;;;;;;;14.73;9.97;;;;;;;;;;5103041;28;20204;-31
2024/01/21 14:38:04;;;;;;;15.53;9.97;;;;;;;;;;5095763;28;20661;-32
2024/01/21 14:40:33;;;;;;;17.70;9.90;;;;;;;;;;5113116;28;20281;-35
2024/01/21 14:43:02;;;;;;;17.47;10.67;;;;;;;;;;5112835;28;20204;-32
2024/01/21 14:45:30;;;;;;;15.63;10.10;;;;;;;;;;5107396;28;20220;-38
2024/01/21 14:54:10;;;;;;;18.00;11.13;;;;;;;;;;5100922;27;20205;-34
2024/01/21 14:56:40;;;;;;;15.17;9.77;;;;;;;;;;5095872;27;20752;-39
2024/01/21 14:59:08;;;;;;;16.70;10.33;;;;;;;;;;5105683;27;20562;-34
2024/01/21 15:01:36;;;;;;;16.33;9.80;;;;;;;;;;5112178;27;20200;-34
2024/01/21 15:04:04;;;;;;;17.53;10.70;;;;;;;;;;5112053;27;20236;-34
2024/01/21 15:06:40;;;;;;;16.10;10.50;;;;;;;;;;5108265;28;20227;-34
2024/01/21 15:09:09;;;;;;;14.10;9.70;;;;;;;;;;5115053;27;20207;-35
2024/01/21 15:11:43;;;;;;;14.53;9.87;;;;;;;;;;5101204;28;20211;-35
2024/01/21 15:14:19;;;;;;;14.87;9.77;;;;;;;;;;5117197;27;20256;-36
2024/01/21 15:17:03;;;;;;;14.57;9.67;;;;;;;;;;5129500;27;20203;-36
2024/01/21 15:19:31;;;;;;;12.73;9.00;;;;;;;;;;5105281;27;20686;-38
2024/01/21 15:22:02;;;;;;;14.20;9.50;;;;;;;;;;5129935;27;20231;-37
2024/01/21 15:24:31;;;;;;;13.20;9.90;;;;;;;;;;5106982;27;20216;-36
2024/01/21 15:27:01;;;;;;;19.27;11.40;;;;;;;;;;5128063;27;20228;-32
2024/01/21 15:29:32;;;;;;;15.07;10.07;;;;;;;;;;5113637;27;20227;-37
2024/01/21 15:32:01;;;;;;;19.43;11.20;;;;;;;;;;5111463;27;20211;-32
2024/01/21 15:34:32;;;;;;;17.53;11.53;;;;;;;;;;5121256;27;20202;-33
2024/01/21 15:37:01;;;;;;;15.70;11.13;;;;;;;;;;5120371;27;20204;-35